Time;durP1;ratioP1;P1;durP2;ratioP2;P2;SDS_P1;SDS_P2;PMS_P1;PMS_P2;Temp;Humidity;BMP_temperature;BMP_pressure;BME280_temperature;BME280_humidity;BME280_pressure;Samples;Min_cycle;Max_cycle;Signal;HPM_P1;HPM_P2
2021/11/02 00:00:51;;;;;;;3.40;1.40;;;;;;;19.38;43.44;95283.19;5057314;28;20484;-65
2021/11/02 00:03:17;;;;;;;1.40;1.30;;;;;;;18.56;46.40;95278.75;5073519;28;20661;-65
2021/11/02 00:05:42;;;;;;;4.70;1.40;;;;;;;18.16;43.88;95277.25;5068637;28;20790;-65
2021/11/02 00:08:08;;;;;;;2.27;1.47;;;;;;;17.89;46.95;95283.28;5075531;28;20232;-66
2021/11/02 00:10:34;;;;;;;2.40;1.10;;;;;;;18.21;47.43;95285.25;5085444;28;20171;-65
2021/11/02 00:12:59;;;;;;;2.90;1.40;;;;;;;18.08;46.72;95277.69;5065027;28;20206;-67
2021/11/02 00:15:31;;;;;;;4.10;0.97;;;;;;;18.67;46.41;95281.50;5068953;28;20252;-68
2021/11/02 00:18:00;;;;;;;1.80;1.17;;;;;;;18.31;46.21;95283.78;5071862;28;20296;-66
2021/11/02 00:20:26;;;;;;;2.30;1.30;;;;;;;18.81;45.81;95281.91;5070517;28;20610;-66
2021/11/02 00:22:59;;;;;;;3.00;1.60;;;;;;;18.40;43.75;95282.28;5046262;28;20516;-66
2021/11/02 00:25:27;;;;;;;5.80;1.67;;;;;;;17.51;45.16;95284.88;5071046;28;20198;-66
2021/11/02 00:27:53;;;;;;;3.20;1.90;;;;;;;16.94;46.61;95278.72;5052715;28;20461;-66
2021/11/02 00:30:20;;;;;;;3.30;1.87;;;;;;;17.17;49.80;95279.59;5068207;28;20875;-66
2021/11/02 00:32:48;;;;;;;6.03;1.80;;;;;;;17.74;48.19;95286.50;5063944;28;20919;-66
2021/11/02 00:35:15;;;;;;;2.90;1.43;;;;;;;17.22;49.38;95284.16;5070445;28;20510;-66
2021/11/02 00:37:41;;;;;;;4.27;1.67;;;;;;;17.58;48.68;95288.16;5070923;28;20424;-66
2021/11/02 00:40:09;;;;;;;4.00;1.77;;;;;;;17.52;49.12;95290.97;5069751;28;20456;-66
2021/11/02 00:42:40;;;;;;;3.13;1.70;;;;;;;16.15;46.66;95295.22;5052174;28;20429;-66
2021/11/02 00:45:11;;;;;;;2.80;1.57;;;;;;;16.67;51.01;95287.22;5070463;28;20816;-66
2021/11/02 00:47:37;;;;;;;2.80;1.50;;;;;;;16.49;52.35;95287.44;5065867;28;20516;-67
2021/11/02 00:50:10;;;;;;;3.23;1.33;;;;;;;17.17;47.50;95293.66;5066359;28;20995;-66
2021/11/02 00:52:40;;;;;;;2.40;1.43;;;;;;;17.23;49.41;95281.28;5068055;28;20232;-68
2021/11/02 00:55:07;;;;;;;3.20;1.20;;;;;;;17.44;49.15;95282.41;5060425;28;20448;-67
2021/11/02 00:57:34;;;;;;;2.47;1.30;;;;;;;17.98;47.31;95274.91;5052130;28;20537;-67
2021/11/02 00:59:59;;;;;;;3.10;1.33;;;;;;;18.42;45.98;95272.22;5066443;28;20490;-67
2021/11/02 01:02:25;;;;;;;4.63;1.70;;;;;;;18.68;45.97;95269.81;5070232;28;20942;-67
2021/11/02 01:04:51;;;;;;;3.00;1.33;;;;;;;18.91;45.48;95271.38;5066072;28;20257;-67
2021/11/02 01:07:17;;;;;;;2.27;1.57;;;;;;;17.51;44.48;95274.28;5061080;28;20220;-67
2021/11/02 01:09:43;;;;;;;2.27;1.20;;;;;;;17.79;48.02;95275.16;5070827;28;20424;-66
2021/11/02 01:12:10;;;;;;;4.63;1.33;;;;;;;18.32;47.04;95269.47;5057274;28;20524;-67
2021/11/02 01:14:36;;;;;;;1.60;1.33;;;;;;;18.15;46.54;95270.34;5053520;28;20440;-66
2021/11/02 01:17:02;;;;;;;1.90;1.20;;;;;;;18.35;46.55;95261.03;5071253;28;20425;-67
2021/11/02 01:19:27;;;;;;;3.00;1.57;;;;;;;17.90;47.35;95263.66;5070705;28;20202;-67
2021/11/02 01:21:53;;;;;;;1.77;1.40;;;;;;;17.94;46.08;95267.44;5060607;28;20194;-65
2021/11/02 01:24:20;;;;;;;4.90;1.20;;;;;;;17.01;47.82;95265.31;5055417;28;20198;-66
2021/11/02 01:26:46;;;;;;;3.10;1.20;;;;;;;16.84;46.91;95268.72;5070708;28;20312;-65
2021/11/02 01:29:12;;;;;;;1.63;1.23;;;;;;;17.09;49.98;95264.91;5063820;28;20423;-66
2021/11/02 01:31:38;;;;;;;5.90;1.90;;;;;;;17.86;44.91;95267.88;5066588;28;20457;-68
2021/11/02 01:34:04;;;;;;;1.10;0.97;;;;;;;17.88;46.58;95254.34;5059159;28;20577;-66
2021/11/02 01:36:30;;;;;;;2.97;1.30;;;;;;;17.20;49.50;95255.31;5074640;28;20519;-66
2021/11/02 01:38:56;;;;;;;4.40;1.40;;;;;;;16.86;50.14;95256.06;5073818;28;20673;-67
2021/11/02 01:41:25;;;;;;;2.50;1.40;;;;;;;17.81;45.19;95258.00;5072359;28;20420;-66
2021/11/02 01:43:52;;;;;;;1.23;1.10;;;;;;;16.89;48.76;95257.41;5040877;28;20194;-66
2021/11/02 01:46:23;;;;;;;1.50;1.10;;;;;;;17.45;45.59;95262.00;5073990;28;20420;-66
2021/11/02 01:48:51;;;;;;;6.47;1.37;;;;;;;17.39;48.59;95265.66;5065501;28;20433;-66
2021/11/02 01:51:17;;;;;;;2.80;1.20;;;;;;;17.43;48.70;95266.75;5072249;28;20524;-67
2021/11/02 01:53:43;;;;;;;4.10;1.30;;;;;;;17.89;47.44;95264.72;5056429;28;20999;-67
2021/11/02 01:56:10;;;;;;;1.50;0.90;;;;;;;17.77;46.82;95262.19;5072552;28;20187;-67
2021/11/02 01:58:35;;;;;;;2.50;1.07;;;;;;;16.89;48.21;95255.59;5059978;28;20517;-67
2021/11/02 02:01:01;;;;;;;2.37;1.03;;;;;;;16.47;50.17;95255.94;5069592;28;20566;-67
2021/11/02 02:03:47;;;;;;;2.90;1.20;;;;;;;15.92;51.74;95254.63;5073227;28;20244;-66
2021/11/02 02:06:27;;;;;;;4.53;0.97;;;;;;;15.18;52.96;95272.59;5072729;28;20182;-67
2021/11/02 02:09:18;;;;;;;2.63;1.10;;;;;;;14.78;55.76;95262.66;5071386;28;20420;-67
2021/11/02 02:11:54;;;;;;;1.60;1.37;;;;;;;15.62;51.97;95256.38;5057934;28;20541;-67
2021/11/02 02:14:29;;;;;;;3.63;1.30;;;;;;;16.28;49.44;95247.38;5057826;28;20501;-67
2021/11/02 02:16:56;;;;;;;2.23;1.27;;;;;;;16.05;52.58;95249.09;5055536;28;20450;-67
2021/11/02 02:19:45;;;;;;;3.63;1.20;;;;;;;14.70;51.44;95249.81;5065516;28;20465;-67
2021/11/02 02:22:23;;;;;;;2.53;1.10;;;;;;;15.49;52.64;95246.06;5063240;28;20421;-68
2021/11/02 02:25:18;;;;;;;8.70;1.10;;;;;;;16.12;49.56;95238.38;5072568;28;20450;-66
2021/11/02 02:28:01;;;;;;;4.10;1.20;;;;;;;17.18;47.45;95234.38;5073530;28;20940;-67
2021/11/02 02:30:29;;;;;;;2.07;0.93;;;;;;;17.04;48.80;95238.41;5073444;28;20421;-67
2021/11/02 02:32:55;;;;;;;1.97;1.00;;;;;;;17.49;48.69;95249.91;5072087;28;20427;-67
2021/11/02 02:35:22;;;;;;;4.13;1.10;;;;;;;17.66;47.27;95244.56;5048482;28;20457;-67
2021/11/02 02:37:49;;;;;;;3.03;0.93;;;;;;;16.58;47.53;95249.78;5064032;28;20193;-67
2021/11/02 02:40:15;;;;;;;2.20;0.90;;;;;;;17.21;49.59;95241.03;5073067;28;20464;-66
2021/11/02 02:42:41;;;;;;;6.40;1.20;;;;;;;16.22;52.09;95249.13;5071014;28;20550;-67
2021/11/02 02:45:08;;;;;;;2.83;1.90;;;;;;;16.31;51.26;95249.56;5055523;28;20516;-67
2021/11/02 02:47:36;;;;;;;2.43;1.13;;;;;;;15.60;50.87;95255.03;5055906;28;20424;-66
2021/11/02 02:50:03;;;;;;;3.80;1.10;;;;;;;14.51;51.52;95251.69;5064785;28;20839;-66
2021/11/02 02:52:29;;;;;;;7.73;1.40;;;;;;;15.81;50.09;95246.47;5043844;28;20425;-67
2021/11/02 02:54:56;;;;;;;4.00;1.63;;;;;;;15.42;52.25;95238.28;5069862;28;20850;-66
2021/11/02 02:57:24;;;;;;;2.40;1.10;;;;;;;16.96;50.09;95223.72;5073351;28;20455;-66
2021/11/02 02:59:50;;;;;;;3.17;1.00;;;;;;;17.13;49.45;95233.50;5055294;28;20468;-66
2021/11/02 03:02:18;;;;;;;2.40;1.10;;;;;;;17.35;48.64;95225.59;5073672;28;20425;-66
2021/11/02 03:04:44;;;;;;;3.43;1.10;;;;;;;17.57;43.55;95223.00;5060926;28;20440;-66
2021/11/02 03:07:10;;;;;;;5.83;1.40;;;;;;;16.23;49.84;95226.19;5072256;28;20874;-67
2021/11/02 03:09:36;;;;;;;2.93;1.50;;;;;;;16.54;50.69;95234.63;5073308;28;20423;-65
2021/11/02 03:12:05;;;;;;;2.13;1.00;;;;;;;16.18;49.60;95236.63;5070606;28;20182;-65
2021/11/02 03:14:49;;;;;;;1.60;1.23;;;;;;;16.50;45.75;95236.16;5062946;28;20196;-65
2021/11/02 03:17:19;;;;;;;2.50;1.47;;;;;;;16.89;48.38;95230.97;5055252;28;20416;-66
2021/11/02 04:34:30;;;;;;;1.97;1.20;;;;;;;17.13;47.30;95238.81;4979890;28;20531;-66
2021/11/02 05:54:57;;;;;;;2.30;1.50;;;;;;;17.46;44.90;95227.34;5061983;28;20463;-66
2021/11/02 06:03:17;;;;;;;5.80;1.33;;;;;;;18.32;42.65;95227.06;5042438;28;20179;-66
2021/11/02 06:29:23;;;;;;;10.03;1.90;;;;;;;18.47;43.07;95229.03;5057476;28;20419;-66
2021/11/02 06:31:55;;;;;;;5.93;1.60;;;;;;;18.26;42.25;95224.38;5073364;28;20455;-67
2021/11/02 06:39:42;;;;;;;3.17;2.10;;;;;;;13.66;47.59;95226.00;5071636;28;20491;-67
2021/11/02 06:50:46;;;;;;;2.13;1.53;;;;;;;11.07;56.28;95240.25;5055720;28;20927;-68
2021/11/02 07:18:38;;;;;;;3.97;1.43;;;;;;;10.56;62.15;95270.47;5071915;28;20911;-67
2021/11/02 07:21:15;;;;;;;1.97;1.40;;;;;;;10.55;63.08;95263.63;5060560;28;20421;-68
2021/11/02 07:23:52;;;;;;;3.00;1.97;;;;;;;10.58;62.76;95272.91;5050444;28;20531;-68
2021/11/02 07:26:30;;;;;;;4.17;1.80;;;;;;;10.82;62.34;95268.06;5056765;28;20486;-67
2021/11/02 08:47:40;;;;;;;6.10;1.27;;;;;;;12.38;59.36;95270.94;5056595;28;20426;-67
2021/11/02 08:50:08;;;;;;;3.00;1.30;;;;;;;12.09;59.59;95267.03;5052442;28;20532;-68
2021/11/02 08:52:35;;;;;;;2.53;1.23;;;;;;;12.25;59.91;95265.75;5060825;28;20421;-69
2021/11/02 08:55:03;;;;;;;3.33;1.30;;;;;;;12.48;58.93;95270.47;5059670;28;20506;-67
2021/11/02 08:57:28;;;;;;;3.17;1.60;;;;;;;12.57;59.04;95263.16;5070132;28;20942;-68
2021/11/02 08:59:54;;;;;;;3.53;2.33;;;;;;;12.54;59.28;95261.72;5061743;28;20452;-67
2021/11/02 09:02:23;;;;;;;5.90;1.70;;;;;;;12.10;60.13;95263.41;5069089;28;20179;-67
2021/11/02 09:05:08;;;;;;;2.40;1.53;;;;;;;12.21;60.66;95264.56;5066217;28;20447;-66
2021/11/02 09:07:36;;;;;;;3.80;1.67;;;;;;;12.15;60.68;95268.84;5070868;28;20420;-66
2021/11/02 09:10:10;;;;;;;4.43;1.70;;;;;;;12.22;60.79;95271.44;5070442;28;20482;-65
2021/11/02 09:12:36;;;;;;;2.90;1.70;;;;;;;12.17;61.45;95266.78;5070023;28;20464;-66
2021/11/02 09:15:03;;;;;;;5.33;1.90;;;;;;;11.87;62.06;95271.75;5069436;28;20445;-65
2021/11/02 09:17:32;;;;;;;3.17;2.13;;;;;;;12.04;62.22;95267.69;5071240;28;20501;-65
2021/11/02 09:20:00;;;;;;;3.70;1.60;;;;;;;12.15;61.85;95276.72;5069884;28;20453;-67
2021/11/02 09:22:25;;;;;;;8.60;1.83;;;;;;;11.92;62.95;95269.31;5044744;28;20480;-65
2021/11/02 09:24:51;;;;;;;4.07;1.40;;;;;;;12.03;62.68;95276.56;5066467;28;20460;-68
2021/11/02 09:27:17;;;;;;;7.20;1.60;;;;;;;11.80;63.25;95275.22;5069852;28;20178;-66
2021/11/02 09:29:44;;;;;;;2.77;1.53;;;;;;;11.87;63.27;95272.56;5035855;28;20421;-65
2021/11/02 09:32:10;;;;;;;6.40;2.53;;;;;;;11.64;63.88;95271.22;5069016;28;20425;-67
2021/11/02 09:34:36;;;;;;;5.37;1.70;;;;;;;11.61;63.99;95274.25;5070366;28;20451;-67
2021/11/02 09:37:15;;;;;;;7.00;2.13;;;;;;;11.99;63.34;95275.34;5066399;28;20191;-67
2021/11/02 09:39:49;;;;;;;3.23;1.90;;;;;;;11.96;63.19;95273.13;5068915;28;20543;-67
2021/11/02 09:42:24;;;;;;;2.53;1.50;;;;;;;11.68;63.21;95280.28;5054867;28;20416;-67
2021/11/02 09:45:11;;;;;;;5.17;2.10;;;;;;;11.50;64.02;95278.31;5065549;28;21040;-67
2021/11/02 09:48:04;;;;;;;3.60;1.83;;;;;;;11.22;64.25;95268.84;5063708;28;20493;-69
2021/11/02 09:50:50;;;;;;;3.10;1.60;;;;;;;11.43;64.01;95280.16;5053692;28;20472;-68
2021/11/02 09:53:38;;;;;;;3.43;1.50;;;;;;;11.19;64.79;95274.53;5054837;28;20416;-68
2021/11/02 09:56:42;;;;;;;3.00;1.70;;;;;;;11.50;64.34;95269.63;5073837;28;20423;-67
2021/11/02 09:59:27;;;;;;;3.47;1.50;;;;;;;11.46;64.90;95274.50;5070951;28;20471;-68
2021/11/02 10:02:22;;;;;;;5.10;1.70;;;;;;;11.32;65.14;95276.31;5072298;28;20565;-67
2021/11/02 10:04:58;;;;;;;2.73;1.30;;;;;;;11.25;64.79;95272.91;5062110;28;20444;-66
2021/11/02 10:07:31;;;;;;;2.93;1.90;;;;;;;11.40;65.03;95279.75;5072818;28;20424;-65
2021/11/02 10:10:00;;;;;;;4.30;1.87;;;;;;;11.52;64.89;95265.78;5073570;28;20435;-67
2021/11/02 10:12:40;;;;;;;4.50;1.87;;;;;;;11.43;65.64;95274.06;5072418;28;20485;-68
2021/11/02 10:15:34;;;;;;;5.17;2.83;;;;;;;11.28;65.36;95271.69;5064198;28;20453;-67
2021/11/02 10:18:37;;;;;;;8.77;2.40;;;;;;;11.44;65.69;95271.28;5073723;28;20459;-66
2021/11/02 10:21:24;;;;;;;4.70;1.80;;;;;;;11.37;65.70;95271.28;5053603;28;20916;-66
2021/11/02 10:24:08;;;;;;;2.87;1.90;;;;;;;11.45;65.42;95262.41;5074935;28;20455;-66
2021/11/02 10:27:23;;;;;;;2.50;2.20;;;;;;;11.57;65.38;95270.41;5074572;28;20425;-68
2021/11/02 10:30:03;;;;;;;4.00;1.83;;;;;;;11.73;65.38;95258.66;5066111;28;20922;-67
2021/11/02 10:32:30;;;;;;;10.67;1.90;;;;;;;11.79;65.29;95260.47;5067819;28;20428;-68
2021/11/02 10:35:09;;;;;;;3.30;2.27;;;;;;;11.83;65.52;95264.31;5050717;28;20951;-66
2021/11/02 10:37:34;;;;;;;7.27;2.13;;;;;;;11.74;65.13;95267.34;5071005;28;20439;-66
2021/11/02 10:40:13;;;;;;;3.53;2.10;;;;;;;11.53;65.90;95261.34;5068875;28;20472;-67
2021/11/02 10:43:09;;;;;;;6.07;3.17;;;;;;;11.57;65.96;95256.50;5062424;28;20465;-67
2021/11/02 10:45:36;;;;;;;4.80;2.40;;;;;;;11.72;65.13;95254.41;5061494;28;20441;-66
2021/11/02 10:48:03;;;;;;;7.57;3.67;;;;;;;11.67;66.05;95249.00;5068323;28;20440;-66
2021/11/02 10:50:31;;;;;;;7.87;2.80;;;;;;;12.06;64.98;95251.69;5060349;28;20516;-67
2021/11/02 10:53:01;;;;;;;4.63;3.00;;;;;;;12.03;64.74;95252.94;5049579;28;20508;-69
2021/11/02 10:55:39;;;;;;;6.60;2.80;;;;;;;11.65;65.53;95251.03;5054706;28;20955;-67
2021/11/02 10:58:21;;;;;;;2.87;2.40;;;;;;;12.11;64.81;95251.88;5054207;28;20432;-67
2021/11/02 11:00:48;;;;;;;6.50;2.50;;;;;;;12.12;65.11;95251.66;5073110;28;20559;-67
2021/11/02 11:03:13;;;;;;;7.97;2.43;;;;;;;12.23;64.78;95252.00;5067922;28;20425;-67
2021/11/02 11:05:45;;;;;;;6.13;2.27;;;;;;;11.80;65.59;95250.75;5065355;28;20451;-66
2021/11/02 11:08:15;;;;;;;4.23;2.27;;;;;;;11.96;65.76;95252.13;5071452;28;20182;-67
2021/11/02 11:10:42;;;;;;;6.93;2.33;;;;;;;11.94;65.75;95257.56;5070343;28;21070;-68
2021/11/02 11:13:10;;;;;;;2.83;2.17;;;;;;;11.91;65.85;95246.69;5070486;28;20907;-68
2021/11/02 11:15:35;;;;;;;2.57;2.37;;;;;;;11.66;67.08;95252.63;5068966;28;20501;-68
2021/11/02 11:18:06;;;;;;;3.20;2.57;;;;;;;11.97;66.47;95254.53;5050629;28;20437;-67
2021/11/02 11:20:34;;;;;;;2.90;2.33;;;;;;;12.33;65.46;95247.13;5064422;28;20211;-69
2021/11/02 11:23:04;;;;;;;3.70;1.90;;;;;;;11.80;66.54;95253.38;5059819;28;20474;-67
2021/11/02 11:25:46;;;;;;;8.10;2.30;;;;;;;11.93;65.73;95244.69;5060985;28;20436;-66
2021/11/02 11:28:18;;;;;;;3.40;2.07;;;;;;;11.91;65.38;95244.06;5069699;28;20801;-67
2021/11/02 11:30:45;;;;;;;4.00;1.80;;;;;;;12.35;64.11;95239.81;5071972;28;20425;-68
2021/11/02 11:33:15;;;;;;;2.53;2.00;;;;;;;12.23;64.37;95242.34;5062450;28;20421;-67
2021/11/02 11:35:42;;;;;;;5.73;2.30;;;;;;;12.50;63.39;95238.72;5068760;28;20863;-67
2021/11/02 11:38:10;;;;;;;3.00;1.93;;;;;;;12.80;63.05;95240.75;5069950;28;20435;-68
2021/11/02 11:40:37;;;;;;;9.37;2.50;;;;;;;12.58;62.86;95233.25;5054575;28;20487;-67
2021/11/02 11:43:05;;;;;;;5.17;3.03;;;;;;;12.90;63.14;95233.19;5037499;28;20462;-66
2021/11/02 11:45:32;;;;;;;3.30;1.97;;;;;;;13.12;62.61;95228.34;5056772;28;20499;-67
2021/11/02 11:48:10;;;;;;;4.57;2.83;;;;;;;13.08;62.90;95229.00;5064731;28;20515;-67
2021/11/02 11:50:37;;;;;;;3.80;1.80;;;;;;;12.93;62.48;95229.31;5059604;28;20425;-67
2021/11/02 11:53:03;;;;;;;3.73;1.90;;;;;;;12.85;62.66;95225.16;5069254;28;20436;-67
2021/11/02 11:55:31;;;;;;;1.77;1.33;;;;;;;12.81;62.00;95219.50;5071909;28;20482;-68
2021/11/02 11:58:12;;;;;;;1.70;1.60;;;;;;;12.91;62.21;95226.91;5070345;28;20429;-67
2021/11/02 12:00:44;;;;;;;4.93;2.10;;;;;;;13.00;61.71;95222.19;5070670;28;20553;-67
2021/11/02 12:03:12;;;;;;;3.43;2.00;;;;;;;12.94;60.84;95231.75;5070065;28;20440;-66
2021/11/02 12:05:43;;;;;;;5.70;1.07;;;;;;;12.35;61.96;95224.06;5057596;28;20838;-69
2021/11/02 12:08:16;;;;;;;2.20;1.57;;;;;;;12.69;62.09;95222.03;5070198;28;20594;-67
2021/11/02 12:10:44;;;;;;;3.47;1.20;;;;;;;12.31;62.03;95220.28;5055209;28;20544;-69
2021/11/02 12:13:12;;;;;;;1.70;1.17;;;;;;;12.43;62.01;95217.75;5068602;28;20429;-66
2021/11/02 12:15:45;;;;;;;1.30;1.20;;;;;;;12.41;63.71;95223.22;5066104;28;21050;-65
2021/11/02 12:18:18;;;;;;;1.17;0.80;;;;;;;11.53;64.36;95212.31;5054601;28;20460;-64
2021/11/02 12:20:44;;;;;;;1.67;1.50;;;;;;;11.67;65.72;95217.53;5060623;28;20545;-65
2021/11/02 12:23:16;;;;;;;1.40;1.00;;;;;;;11.64;65.52;95218.75;5053741;28;20421;-65
2021/11/02 12:25:55;;;;;;;2.20;1.23;;;;;;;11.03;66.02;95225.94;5071580;28;20443;-67
2021/11/02 12:28:28;;;;;;;1.83;1.33;;;;;;;10.94;66.41;95218.50;5069912;28;20443;-64
2021/11/02 12:30:58;;;;;;;1.73;1.00;;;;;;;11.75;63.98;95217.28;5070350;28;20449;-67
2021/11/02 12:33:26;;;;;;;1.30;1.10;;;;;;;10.99;65.50;95216.88;5070898;28;20455;-65
2021/11/02 12:35:54;;;;;;;3.83;1.80;;;;;;;11.96;63.79;95213.56;5067368;28;20435;-68
2021/11/02 12:38:39;;;;;;;1.00;0.80;;;;;;;11.14;64.22;95219.28;5071153;28;20433;-64
2021/11/02 12:41:34;;;;;;;2.20;0.93;;;;;;;11.57;63.01;95227.66;5076346;28;20456;-65
2021/11/02 12:44:05;;;;;;;1.43;0.93;;;;;;;11.39;63.02;95223.84;5033880;28;21011;-64
2021/11/02 12:46:32;;;;;;;1.00;0.80;;;;;;;11.43;62.92;95226.88;5055016;28;20461;-64
2021/11/02 12:49:05;;;;;;;0.90;0.70;;;;;;;11.55;62.38;95219.19;5040499;28;20495;-65
2021/11/02 12:51:36;;;;;;;1.30;1.10;;;;;;;12.14;61.16;95217.34;5044900;28;20464;-67
2021/11/02 12:54:04;;;;;;;1.00;0.90;;;;;;;12.43;59.47;95221.22;5039819;28;20814;-65
2021/11/02 12:56:33;;;;;;;1.33;0.80;;;;;;;13.35;56.23;95222.47;5050606;28;20835;-68
2021/11/02 12:59:17;;;;;;;1.20;0.80;;;;;;;13.81;55.20;95216.94;5047062;28;20434;-64
2021/11/02 13:01:43;;;;;;;1.77;0.70;;;;;;;13.52;55.79;95225.34;5028285;28;20555;-65
2021/11/02 13:04:09;;;;;;;0.90;0.60;;;;;;;13.09;56.75;95222.72;5044761;28;21147;-65
2021/11/02 13:06:47;;;;;;;0.90;0.70;;;;;;;13.04;56.74;95226.78;5032115;28;20435;-64
2021/11/02 13:09:18;;;;;;;0.93;0.70;;;;;;;12.46;58.18;95227.06;5047898;28;20434;-67
2021/11/02 13:11:44;;;;;;;1.10;0.90;;;;;;;12.95;57.39;95222.84;5052447;28;20433;-65
2021/11/02 13:14:12;;;;;;;1.20;1.00;;;;;;;12.29;58.83;95227.56;5020042;28;20628;-66
2021/11/02 13:17:18;;;;;;;1.63;1.00;;;;;;;12.90;58.43;95231.38;5018600;28;20422;-66
2021/11/02 13:19:49;;;;;;;0.90;0.70;;;;;;;12.10;59.10;95227.44;4949755;28;20544;-65
2021/11/02 13:22:22;;;;;;;1.27;1.17;;;;;;;12.37;58.95;95231.75;4955185;28;20433;-64
2021/11/02 13:25:06;;;;;;;1.73;0.80;;;;;;;12.46;58.97;95227.84;4937619;28;20983;-67
2021/11/02 13:27:43;;;;;;;2.30;1.40;;;;;;;12.38;59.29;95230.75;4965251;28;20425;-65
2021/11/02 13:30:31;;;;;;;1.80;1.00;;;;;;;12.47;58.82;95233.91;4973417;28;20458;-65
2021/11/02 13:32:58;;;;;;;1.30;0.93;;;;;;;11.70;61.50;95242.53;4955237;28;20463;-66
2021/11/02 13:35:43;;;;;;;3.60;0.80;;;;;;;12.27;60.64;95237.47;4968978;28;21129;-67
2021/11/02 13:38:23;;;;;;;1.30;0.87;;;;;;;12.48;59.65;95238.13;4969469;28;20444;-66
2021/11/02 13:40:50;;;;;;;0.90;0.70;;;;;;;12.27;59.93;95232.22;4956990;28;20468;-66
2021/11/02 13:43:24;;;;;;;1.40;1.20;;;;;;;11.97;60.56;95232.75;4957381;28;20437;-64
2021/11/02 13:45:51;;;;;;;1.00;0.60;;;;;;;12.17;60.13;95224.00;4970336;28;20445;-65
2021/11/02 13:48:16;;;;;;;1.00;0.70;;;;;;;11.63;60.13;95229.44;4960987;28;20440;-65
2021/11/02 13:50:44;;;;;;;0.83;0.50;;;;;;;11.55;58.99;95227.84;5006021;28;20933;-67
2021/11/02 13:53:10;;;;;;;1.67;0.93;;;;;;;11.88;58.27;95226.09;5073532;28;20268;-67
2021/11/02 13:55:37;;;;;;;2.70;1.23;;;;;;;11.36;60.02;95238.19;5073120;28;20558;-65
2021/11/02 13:58:02;;;;;;;7.93;2.40;;;;;;;11.03;60.61;95230.38;5074076;28;20206;-66
2021/11/02 14:00:29;;;;;;;1.23;1.07;;;;;;;11.19;60.46;95227.34;5074402;28;20479;-64
2021/11/02 14:03:00;;;;;;;1.67;0.93;;;;;;;11.82;58.39;95215.44;5072680;28;20186;-65
2021/11/02 14:05:26;;;;;;;1.27;0.87;;;;;;;12.01;57.56;95230.53;5069225;28;20608;-66
2021/11/02 14:07:52;;;;;;;0.90;0.60;;;;;;;11.66;58.22;95237.69;5074236;28;20424;-65
2021/11/02 14:10:19;;;;;;;1.00;0.77;;;;;;;11.30;59.49;95238.22;5055679;28;20432;-65
2021/11/02 14:12:52;;;;;;;1.00;0.73;;;;;;;12.10;57.54;95232.69;5073688;28;20460;-65
2021/11/02 14:15:31;;;;;;;1.23;1.03;;;;;;;12.19;57.16;95237.72;5052733;28;21106;-65
2021/11/02 14:17:56;;;;;;;1.37;1.27;;;;;;;12.68;55.81;95238.81;5058547;28;20441;-66
2021/11/02 14:20:51;;;;;;;1.33;1.23;;;;;;;12.69;55.78;95245.69;5068312;28;20461;-64
2021/11/02 14:23:34;;;;;;;2.73;0.90;;;;;;;12.47;54.94;95250.47;5072080;28;20189;-65
2021/11/02 14:26:21;;;;;;;1.00;0.70;;;;;;;12.39;55.48;95251.53;5066210;28;20494;-64
2021/11/02 14:28:54;;;;;;;1.10;0.90;;;;;;;12.45;55.77;95257.75;5073135;28;20445;-66
2021/11/02 14:31:49;;;;;;;1.10;0.90;;;;;;;12.13;56.71;95269.03;5058283;28;20771;-65
2021/11/02 14:34:27;;;;;;;3.07;1.70;;;;;;;12.03;57.06;95262.66;5051058;28;20551;-66
2021/11/02 14:37:22;;;;;;;2.70;0.97;;;;;;;11.70;57.99;95266.97;5046842;28;20426;-68
2021/11/02 14:39:58;;;;;;;1.00;0.73;;;;;;;12.38;56.50;95265.69;4939503;28;20492;-66
2021/11/02 14:42:40;;;;;;;1.03;0.80;;;;;;;12.41;56.48;95270.50;4933848;28;20785;-65
2021/11/02 14:45:08;;;;;;;1.20;0.80;;;;;;;12.27;57.02;95266.34;4951732;29;20489;-66
2021/11/02 14:47:35;;;;;;;1.37;1.03;;;;;;;11.73;58.72;95271.78;4936739;29;20434;-64
2021/11/02 14:50:24;;;;;;;1.83;1.10;;;;;;;12.54;56.91;95268.81;4938061;28;20438;-64
2021/11/02 14:52:50;;;;;;;2.43;0.80;;;;;;;11.87;58.96;95271.75;4951517;29;20437;-65
2021/11/02 14:55:54;;;;;;;2.43;0.90;;;;;;;12.11;58.23;95276.31;4952154;29;20826;-65
2021/11/02 14:58:38;;;;;;;2.20;1.13;;;;;;;11.95;58.68;95271.53;4945379;29;20229;-66
2021/11/02 15:01:30;;;;;;;1.10;0.60;;;;;;;11.93;58.76;95263.06;4956889;29;20964;-67
2021/11/02 15:04:05;;;;;;;3.60;1.33;;;;;;;12.23;57.37;95268.59;4962164;28;20453;-65
2021/11/02 15:06:43;;;;;;;1.20;0.83;;;;;;;11.99;58.19;95270.09;4961193;28;20924;-64
2021/11/02 15:09:14;;;;;;;4.10;2.70;;;;;;;11.47;58.93;95273.47;4953218;28;20960;-67
2021/11/02 15:11:41;;;;;;;3.10;1.10;;;;;;;11.97;58.04;95267.66;4989417;28;20774;-64
2021/11/02 15:14:12;;;;;;;2.27;1.23;;;;;;;11.91;57.83;95260.63;4985574;28;20455;-63
2021/11/02 15:16:46;;;;;;;1.00;0.70;;;;;;;11.39;59.27;95276.31;5046004;28;20507;-65
2021/11/02 15:19:12;;;;;;;1.00;0.80;;;;;;;11.02;61.18;95276.75;5079587;28;20464;-66
2021/11/02 15:21:40;;;;;;;1.80;0.90;;;;;;;10.43;62.18;95280.94;5056839;28;20438;-66
2021/11/02 15:24:09;;;;;;;1.20;0.80;;;;;;;10.22;63.20;95281.84;5071826;28;20452;-66
2021/11/02 15:26:46;;;;;;;3.80;2.43;;;;;;;10.53;63.02;95280.53;5071615;28;20429;-66
2021/11/02 15:29:11;;;;;;;4.50;2.40;;;;;;;10.59;63.62;95282.38;5073501;28;20538;-66
2021/11/02 15:31:37;;;;;;;1.90;1.37;;;;;;;10.48;64.35;95283.75;5071369;28;20903;-66
2021/11/02 15:34:13;;;;;;;1.33;0.90;;;;;;;10.00;66.39;95287.22;5071092;28;20206;-65
2021/11/02 15:36:39;;;;;;;3.50;2.33;;;;;;;10.87;64.62;95276.94;5050929;28;20659;-65
2021/11/02 15:39:09;;;;;;;2.10;1.50;;;;;;;10.97;63.89;95281.78;5072108;28;20570;-63
2021/11/02 15:41:34;;;;;;;1.40;1.30;;;;;;;10.29;66.30;95280.03;5072710;28;20186;-64
2021/11/02 15:44:06;;;;;;;1.30;1.00;;;;;;;10.51;65.90;95291.22;5057475;28;20445;-67
2021/11/02 15:46:34;;;;;;;2.13;1.70;;;;;;;10.47;66.50;95292.59;5058733;28;20201;-63
2021/11/02 15:49:03;;;;;;;1.80;1.30;;;;;;;10.69;65.44;95301.13;5066002;28;20969;-66
2021/11/02 15:51:34;;;;;;;2.13;0.73;;;;;;;10.52;65.34;95295.44;5058977;28;20846;-63
2021/11/02 15:54:09;;;;;;;1.00;0.90;;;;;;;10.82;64.41;95300.34;5059800;28;20540;-65
2021/11/02 15:56:35;;;;;;;5.40;2.30;;;;;;;10.63;64.79;95290.63;5061835;28;20435;-66
2021/11/02 15:59:03;;;;;;;1.40;0.93;;;;;;;10.46;65.14;95291.00;5062595;28;20815;-65
2021/11/02 16:01:45;;;;;;;1.90;1.30;;;;;;;10.85;63.85;95294.69;5072268;28;20819;-63
2021/11/02 16:04:23;;;;;;;1.70;1.50;;;;;;;10.85;64.43;95305.16;5066798;28;20444;-64
2021/11/02 16:07:05;;;;;;;2.90;1.93;;;;;;;10.45;66.19;95305.13;5059796;28;20431;-66
2021/11/02 16:09:49;;;;;;;2.70;2.00;;;;;;;9.92;67.80;95298.66;5053602;28;20413;-63
2021/11/02 16:12:21;;;;;;;1.80;1.67;;;;;;;10.18;66.89;95298.94;5063678;28;20448;-64
2021/11/02 16:14:52;;;;;;;4.23;2.00;;;;;;;10.23;67.21;95304.41;5071664;28;20440;-64
2021/11/02 16:17:19;;;;;;;2.50;1.53;;;;;;;9.98;67.13;95297.88;5062310;28;20421;-63
2021/11/02 16:19:46;;;;;;;1.87;1.30;;;;;;;9.94;68.19;95312.38;5067705;28;20916;-64
2021/11/02 16:22:12;;;;;;;1.83;1.73;;;;;;;10.35;66.99;95318.53;5036459;28;20488;-66
2021/11/02 16:24:38;;;;;;;1.33;1.20;;;;;;;10.07;68.02;95313.41;5053575;28;20473;-67
2021/11/02 16:27:21;;;;;;;3.10;1.30;;;;;;;10.16;67.88;95317.47;5069354;28;20557;-66
2021/11/02 16:29:49;;;;;;;1.60;0.90;;;;;;;10.53;66.59;95319.81;5068407;28;20424;-66
2021/11/02 16:32:19;;;;;;;2.07;1.20;;;;;;;10.71;65.98;95321.91;5054725;28;20424;-65
2021/11/02 16:34:45;;;;;;;3.43;1.67;;;;;;;10.81;66.09;95324.09;5071450;28;20521;-65
2021/11/02 16:37:10;;;;;;;5.07;2.30;;;;;;;10.90;65.75;95321.09;5071350;28;20554;-65
2021/11/02 16:39:36;;;;;;;2.87;1.80;;;;;;;10.90;65.73;95328.97;5070884;28;20254;-66
2021/11/02 16:42:05;;;;;;;20.73;6.07;;;;;;;10.74;66.59;95324.91;5071412;28;20608;-67
2021/11/02 16:44:36;;;;;;;5.13;2.43;;;;;;;10.68;67.22;95330.16;5071082;28;20505;-64
2021/11/02 16:47:09;;;;;;;3.40;1.70;;;;;;;10.75;67.24;95333.56;5055096;28;20522;-66
2021/11/02 16:49:35;;;;;;;3.70;1.60;;;;;;;10.71;67.20;95329.75;5053762;28;20433;-66
2021/11/02 16:52:01;;;;;;;4.83;2.40;;;;;;;11.02;66.96;95331.81;5055293;28;20442;-65
2021/11/02 16:54:31;;;;;;;4.67;2.60;;;;;;;11.19;66.31;95334.00;5066879;28;20447;-63
2021/11/02 16:57:08;;;;;;;5.37;2.70;;;;;;;10.92;67.85;95331.38;5063999;28;20193;-64